EAG5510 SEMT-SKCL
Flight info
| Callsign | EAG5510 |
|---|---|
| Flight time | 1h 8m |
| Altitude | 23000 |
| Route | ATOVI1C ATOVI W7 ESV/N0445F240 R564 TCO/N0438F230 R564 DAKOP DAKOP3B |
| Aircraft | A319/M-SDE3FGHIRWY/LB1 |
Departure
| Time | 2026-04-29 01:48 |
|---|---|
| Airport | Eloy Alfaro International Airport (SEMT) |
Arrival
| Time | 2026-04-29 02:57 |
|---|---|
| Airport | Alfonso Bonilla Aragon International Airport (SKCL) |
| Time | Latitude | Longitude | Altitude | Speed | Heading |
|---|---|---|---|---|---|
| 2026-04-29 01:28 | -0.95266 | -80.68400 | 48 ft | 0 kts | 145° |
| 2026-04-29 01:35 | -0.95256 | -80.68408 | 46 ft | 2 kts | 145° |
| 2026-04-29 01:36 | -0.95243 | -80.68417 | 45 ft | 2 kts | 144° |
| 2026-04-29 01:36 | -0.95229 | -80.68427 | 44 ft | 2 kts | 144° |
| 2026-04-29 01:36 | -0.95216 | -80.68436 | 45 ft | 2 kts | 143° |
| 2026-04-29 01:36 | -0.95202 | -80.68446 | 44 ft | 2 kts | 140° |
| 2026-04-29 01:37 | -0.95190 | -80.68457 | 46 ft | 2 kts | 126° |
| 2026-04-29 01:37 | -0.95185 | -80.68471 | 46 ft | 1 kts | 54° |
| 2026-04-29 01:37 | -0.95187 | -80.68473 | 45 ft | 0 kts | 55° |
| 2026-04-29 01:38 | -0.95170 | -80.68447 | 45 ft | 8 kts | 56° |
| 2026-04-29 01:38 | -0.95134 | -80.68396 | 48 ft | 10 kts | 56° |
| 2026-04-29 01:39 | -0.95094 | -80.68336 | 46 ft | 11 kts | 55° |
| 2026-04-29 01:39 | -0.95048 | -80.68271 | 49 ft | 12 kts | 55° |
| 2026-04-29 01:39 | -0.94999 | -80.68199 | 49 ft | 13 kts | 56° |
| 2026-04-29 01:39 | -0.94945 | -80.68119 | 50 ft | 15 kts | 56° |
| 2026-04-29 01:40 | -0.94885 | -80.68032 | 50 ft | 16 kts | 56° |
| 2026-04-29 01:40 | -0.94821 | -80.67938 | 51 ft | 17 kts | 55° |
| 2026-04-29 01:40 | -0.94751 | -80.67836 | 51 ft | 18 kts | 56° |
| 2026-04-29 01:40 | -0.94677 | -80.67728 | 51 ft | 20 kts | 55° |
| 2026-04-29 01:41 | -0.94599 | -80.67613 | 51 ft | 20 kts | 56° |
| 2026-04-29 01:41 | -0.94520 | -80.67498 | 53 ft | 20 kts | 56° |
| 2026-04-29 01:41 | -0.94440 | -80.67380 | 54 ft | 21 kts | 56° |
| 2026-04-29 01:41 | -0.94357 | -80.67258 | 55 ft | 22 kts | 55° |
| 2026-04-29 01:42 | -0.94270 | -80.67132 | 52 ft | 22 kts | 55° |
| 2026-04-29 01:42 | -0.94185 | -80.67009 | 54 ft | 17 kts | 55° |
| 2026-04-29 01:42 | -0.94124 | -80.66921 | 57 ft | 13 kts | 55° |
| 2026-04-29 01:42 | -0.94113 | -80.66906 | 56 ft | 0 kts | 55° |
| 2026-04-29 01:43 | -0.94107 | -80.66897 | 57 ft | 3 kts | 55° |
| 2026-04-29 01:44 | -0.94097 | -80.66883 | 54 ft | 0 kts | 55° |
| 2026-04-29 01:44 | -0.94093 | -80.66878 | 53 ft | 2 kts | 55° |
| 2026-04-29 01:44 | -0.94081 | -80.66860 | 56 ft | 5 kts | 55° |
| 2026-04-29 01:44 | -0.94048 | -80.66825 | 55 ft | 10 kts | 29° |
| 2026-04-29 01:45 | -0.93975 | -80.66807 | 58 ft | 11 kts | 11° |
| 2026-04-29 01:45 | -0.93902 | -80.66805 | 57 ft | 11 kts | 338° |
| 2026-04-29 01:45 | -0.93912 | -80.66863 | 52 ft | 10 kts | 239° |
| 2026-04-29 01:45 | -0.93926 | -80.66885 | 57 ft | 0 kts | 236° |
| 2026-04-29 01:47 | -0.93927 | -80.66886 | 57 ft | 2 kts | 236° |
| 2026-04-29 01:48 | -0.94008 | -80.67005 | 55 ft | 61 kts | 236° |
| 2026-04-29 01:48 | -0.94420 | -80.67607 | 49 ft | 145 kts | 236° |
| 2026-04-29 01:48 | -0.95064 | -80.68556 | 386 ft | 179 kts | 234° |
| 2026-04-29 01:48 | -0.95799 | -80.69603 | 1132 ft | 183 kts | 235° |
| 2026-04-29 01:49 | -0.96500 | -80.70657 | 1938 ft | 185 kts | 245° |
| 2026-04-29 01:49 | -0.96545 | -80.71988 | 2261 ft | 209 kts | 291° |
| 2026-04-29 01:49 | -0.95528 | -80.73093 | 2584 ft | 234 kts | 334° |
| 2026-04-29 01:49 | -0.93856 | -80.73293 | 3064 ft | 257 kts | 14° |
| 2026-04-29 01:50 | -0.92237 | -80.72482 | 3930 ft | 265 kts | 36° |
| 2026-04-29 01:50 | -0.90810 | -80.71294 | 4898 ft | 269 kts | 43° |
| 2026-04-29 01:50 | -0.89428 | -80.69999 | 5824 ft | 275 kts | 44° |
| 2026-04-29 01:50 | -0.88006 | -80.68691 | 6682 ft | 281 kts | 42° |
| 2026-04-29 01:51 | -0.86517 | -80.67401 | 7553 ft | 286 kts | 40° |
| 2026-04-29 01:51 | -0.84969 | -80.66132 | 8449 ft | 289 kts | 39° |
| 2026-04-29 01:51 | -0.83377 | -80.64879 | 9343 ft | 293 kts | 38° |
| 2026-04-29 01:51 | -0.81746 | -80.63627 | 10141 ft | 301 kts | 37° |
| 2026-04-29 01:52 | -0.80012 | -80.62313 | 10450 ft | 325 kts | 37° |
| 2026-04-29 01:52 | -0.78142 | -80.60902 | 10700 ft | 349 kts | 37° |
| 2026-04-29 01:52 | -0.76146 | -80.59398 | 11012 ft | 367 kts | 37° |
| 2026-04-29 01:52 | -0.74087 | -80.57845 | 11637 ft | 373 kts | 37° |
| 2026-04-29 01:53 | -0.72709 | -80.56804 | 12116 ft | 376 kts | 38° |
| 2026-04-29 01:53 | -0.70615 | -80.55220 | 12851 ft | 379 kts | 38° |
| 2026-04-29 01:53 | -0.68506 | -80.53621 | 13571 ft | 383 kts | 38° |
| 2026-04-29 01:53 | -0.66377 | -80.52006 | 14205 ft | 386 kts | 38° |
| 2026-04-29 01:54 | -0.64205 | -80.50402 | 14831 ft | 390 kts | 34° |
| 2026-04-29 01:54 | -0.61829 | -80.49055 | 15434 ft | 394 kts | 29° |
| 2026-04-29 01:54 | -0.59402 | -80.47747 | 16047 ft | 398 kts | 29° |
| 2026-04-29 01:54 | -0.56955 | -80.46426 | 16640 ft | 401 kts | 29° |
| 2026-04-29 01:55 | -0.54490 | -80.45088 | 17237 ft | 405 kts | 29° |
| 2026-04-29 01:55 | -0.52009 | -80.43740 | 17831 ft | 408 kts | 29° |
| 2026-04-29 01:55 | -0.49503 | -80.42379 | 18394 ft | 411 kts | 29° |
| 2026-04-29 01:55 | -0.46977 | -80.41008 | 18869 ft | 415 kts | 29° |
| 2026-04-29 01:56 | -0.44424 | -80.39624 | 19334 ft | 419 kts | 29° |
| 2026-04-29 01:56 | -0.41855 | -80.38232 | 19792 ft | 423 kts | 29° |
| 2026-04-29 01:56 | -0.39260 | -80.36826 | 20235 ft | 426 kts | 29° |
| 2026-04-29 01:56 | -0.36641 | -80.35408 | 20684 ft | 430 kts | 29° |
| 2026-04-29 01:57 | -0.34001 | -80.33976 | 21116 ft | 433 kts | 29° |
| 2026-04-29 01:57 | -0.31340 | -80.32533 | 21531 ft | 437 kts | 29° |
| 2026-04-29 01:57 | -0.28663 | -80.31082 | 21942 ft | 440 kts | 29° |
| 2026-04-29 01:57 | -0.25956 | -80.29616 | 22347 ft | 444 kts | 29° |
| 2026-04-29 01:58 | -0.23232 | -80.28141 | 22751 ft | 447 kts | 29° |
| 2026-04-29 01:58 | -0.20489 | -80.26655 | 22920 ft | 450 kts | 30° |
| 2026-04-29 01:58 | -0.17706 | -80.25146 | 22952 ft | 461 kts | 30° |
| 2026-04-29 01:58 | -0.14855 | -80.23598 | 22949 ft | 471 kts | 30° |
| 2026-04-29 01:59 | -0.11957 | -80.22024 | 22951 ft | 475 kts | 30° |
| 2026-04-29 01:59 | -0.09051 | -80.20448 | 22953 ft | 476 kts | 29° |
| 2026-04-29 01:59 | -0.06140 | -80.18871 | 22947 ft | 476 kts | 29° |
| 2026-04-29 01:59 | -0.03226 | -80.17293 | 22952 ft | 476 kts | 29° |
| 2026-04-29 02:00 | -0.00313 | -80.15717 | 22946 ft | 476 kts | 29° |
| 2026-04-29 02:00 | 0.02598 | -80.14142 | 22944 ft | 476 kts | 30° |
| 2026-04-29 02:00 | 0.05508 | -80.12564 | 22943 ft | 476 kts | 30° |
| 2026-04-29 02:00 | 0.08415 | -80.10987 | 22947 ft | 476 kts | 30° |
| 2026-04-29 02:01 | 0.11325 | -80.09410 | 22948 ft | 476 kts | 30° |
| 2026-04-29 02:01 | 0.14198 | -80.07854 | 22956 ft | 476 kts | 30° |
| 2026-04-29 02:01 | 0.17145 | -80.06256 | 22955 ft | 476 kts | 30° |
| 2026-04-29 02:01 | 0.20017 | -80.04697 | 22954 ft | 476 kts | 30° |
| 2026-04-29 02:02 | 0.22926 | -80.03118 | 22959 ft | 476 kts | 29° |
| 2026-04-29 02:02 | 0.25872 | -80.01523 | 22954 ft | 476 kts | 29° |
| 2026-04-29 02:02 | 0.28783 | -79.99947 | 22955 ft | 476 kts | 29° |
| 2026-04-29 02:02 | 0.31692 | -79.98371 | 22958 ft | 475 kts | 29° |
| 2026-04-29 02:03 | 0.34596 | -79.96795 | 22948 ft | 475 kts | 30° |
| 2026-04-29 02:03 | 0.37501 | -79.95218 | 22952 ft | 475 kts | 30° |
| 2026-04-29 02:03 | 0.40362 | -79.93667 | 22946 ft | 475 kts | 30° |
| 2026-04-29 02:03 | 0.43264 | -79.92096 | 22947 ft | 475 kts | 29° |
| 2026-04-29 02:04 | 0.46168 | -79.90526 | 22946 ft | 474 kts | 29° |
| 2026-04-29 02:04 | 0.49070 | -79.88957 | 22946 ft | 474 kts | 29° |
| 2026-04-29 02:04 | 0.51972 | -79.87389 | 22943 ft | 474 kts | 29° |
| 2026-04-29 02:04 | 0.54875 | -79.85818 | 22948 ft | 474 kts | 29° |
| 2026-04-29 02:05 | 0.57778 | -79.84245 | 22947 ft | 474 kts | 29° |
| 2026-04-29 02:05 | 0.60673 | -79.82673 | 22946 ft | 474 kts | 30° |
| 2026-04-29 02:05 | 0.63574 | -79.81098 | 22941 ft | 474 kts | 29° |
| 2026-04-29 02:05 | 0.66473 | -79.79524 | 22950 ft | 474 kts | 30° |
| 2026-04-29 02:06 | 0.69374 | -79.77949 | 22944 ft | 474 kts | 30° |
| 2026-04-29 02:06 | 0.72271 | -79.76376 | 22952 ft | 474 kts | 30° |
| 2026-04-29 02:06 | 0.75170 | -79.74804 | 22950 ft | 474 kts | 30° |
| 2026-04-29 02:06 | 0.78069 | -79.73233 | 22947 ft | 474 kts | 30° |
| 2026-04-29 02:07 | 0.80966 | -79.71663 | 22946 ft | 474 kts | 30° |
| 2026-04-29 02:07 | 0.83867 | -79.70088 | 22948 ft | 474 kts | 30° |
| 2026-04-29 02:07 | 0.86760 | -79.68517 | 22948 ft | 474 kts | 30° |
| 2026-04-29 02:07 | 0.89658 | -79.66943 | 22946 ft | 474 kts | 30° |
| 2026-04-29 02:08 | 0.92555 | -79.65370 | 22949 ft | 474 kts | 30° |
| 2026-04-29 02:08 | 0.95429 | -79.63761 | 22944 ft | 473 kts | 33° |
| 2026-04-29 02:08 | 0.98067 | -79.61809 | 22938 ft | 471 kts | 42° |
| 2026-04-29 02:08 | 1.00392 | -79.59511 | 22941 ft | 470 kts | 47° |
| 2026-04-29 02:09 | 1.02650 | -79.57147 | 22944 ft | 471 kts | 47° |
| 2026-04-29 02:09 | 1.04914 | -79.54780 | 22942 ft | 471 kts | 47° |
| 2026-04-29 02:09 | 1.07179 | -79.52414 | 22943 ft | 471 kts | 47° |
| 2026-04-29 02:09 | 1.09445 | -79.50047 | 22942 ft | 471 kts | 47° |
| 2026-04-29 02:10 | 1.11709 | -79.47684 | 22943 ft | 471 kts | 47° |
| 2026-04-29 02:10 | 1.13975 | -79.45320 | 22942 ft | 471 kts | 47° |
| 2026-04-29 02:10 | 1.16242 | -79.42956 | 22943 ft | 471 kts | 47° |
| 2026-04-29 02:10 | 1.18504 | -79.40592 | 22940 ft | 471 kts | 47° |
| 2026-04-29 02:11 | 1.20766 | -79.38230 | 22942 ft | 471 kts | 47° |
| 2026-04-29 02:11 | 1.23028 | -79.35868 | 22944 ft | 471 kts | 47° |
| 2026-04-29 02:11 | 1.25291 | -79.33509 | 22943 ft | 470 kts | 47° |
| 2026-04-29 02:11 | 1.27555 | -79.31146 | 22940 ft | 470 kts | 47° |
| 2026-04-29 02:12 | 1.29815 | -79.28784 | 22940 ft | 470 kts | 47° |
| 2026-04-29 02:12 | 1.32072 | -79.26426 | 22932 ft | 470 kts | 47° |
| 2026-04-29 02:12 | 1.34333 | -79.24066 | 22934 ft | 470 kts | 47° |
| 2026-04-29 02:12 | 1.36594 | -79.21703 | 22931 ft | 470 kts | 47° |
| 2026-04-29 02:13 | 1.38852 | -79.19340 | 22935 ft | 470 kts | 47° |
| 2026-04-29 02:13 | 1.41109 | -79.16977 | 22935 ft | 470 kts | 47° |
| 2026-04-29 02:13 | 1.43364 | -79.14617 | 22933 ft | 469 kts | 47° |
| 2026-04-29 02:13 | 1.45623 | -79.12260 | 22934 ft | 469 kts | 47° |
| 2026-04-29 02:14 | 1.47882 | -79.09903 | 22931 ft | 469 kts | 47° |
| 2026-04-29 02:14 | 1.50138 | -79.07548 | 22931 ft | 469 kts | 47° |
| 2026-04-29 02:14 | 1.52393 | -79.05194 | 22931 ft | 469 kts | 47° |
| 2026-04-29 02:14 | 1.54651 | -79.02837 | 22930 ft | 469 kts | 47° |
| 2026-04-29 02:15 | 1.56906 | -79.00480 | 22926 ft | 469 kts | 47° |
| 2026-04-29 02:15 | 1.59163 | -78.98122 | 22926 ft | 469 kts | 47° |
| 2026-04-29 02:15 | 1.61417 | -78.95768 | 22923 ft | 469 kts | 47° |
| 2026-04-29 02:15 | 1.63672 | -78.93414 | 22922 ft | 469 kts | 47° |
| 2026-04-29 02:16 | 1.65927 | -78.91059 | 22919 ft | 469 kts | 47° |
| 2026-04-29 02:16 | 1.68184 | -78.88700 | 22917 ft | 469 kts | 47° |
| 2026-04-29 02:16 | 1.70437 | -78.86346 | 22916 ft | 469 kts | 47° |
| 2026-04-29 02:16 | 1.72696 | -78.83986 | 22914 ft | 469 kts | 47° |
| 2026-04-29 02:17 | 1.74948 | -78.81634 | 22913 ft | 469 kts | 47° |
| 2026-04-29 02:17 | 1.77205 | -78.79273 | 22912 ft | 469 kts | 47° |
| 2026-04-29 02:17 | 1.79431 | -78.76946 | 22915 ft | 469 kts | 47° |
| 2026-04-29 02:17 | 1.81608 | -78.74529 | 22906 ft | 468 kts | 53° |
| 2026-04-29 02:18 | 1.83473 | -78.71871 | 22913 ft | 467 kts | 57° |
| 2026-04-29 02:18 | 1.85292 | -78.69182 | 22912 ft | 467 kts | 57° |
| 2026-04-29 02:18 | 1.87116 | -78.66488 | 22916 ft | 467 kts | 57° |
| 2026-04-29 02:18 | 1.88937 | -78.63802 | 22917 ft | 467 kts | 57° |
| 2026-04-29 02:19 | 1.90762 | -78.61114 | 22921 ft | 467 kts | 57° |
| 2026-04-29 02:19 | 1.92588 | -78.58428 | 22923 ft | 467 kts | 57° |
| 2026-04-29 02:19 | 1.94415 | -78.55746 | 22922 ft | 467 kts | 57° |
| 2026-04-29 02:19 | 1.96245 | -78.53059 | 22926 ft | 467 kts | 57° |
| 2026-04-29 02:20 | 1.98072 | -78.50379 | 22924 ft | 467 kts | 57° |
| 2026-04-29 02:20 | 1.99897 | -78.47699 | 22930 ft | 467 kts | 57° |
| 2026-04-29 02:20 | 2.01725 | -78.45008 | 22925 ft | 467 kts | 57° |
| 2026-04-29 02:20 | 2.03546 | -78.42322 | 22929 ft | 467 kts | 57° |
| 2026-04-29 02:21 | 2.05361 | -78.39638 | 22932 ft | 467 kts | 57° |
| 2026-04-29 02:21 | 2.07180 | -78.36949 | 22933 ft | 467 kts | 57° |
| 2026-04-29 02:21 | 2.08997 | -78.34264 | 22932 ft | 467 kts | 57° |
| 2026-04-29 02:21 | 2.10819 | -78.31574 | 22926 ft | 467 kts | 57° |
| 2026-04-29 02:22 | 2.12644 | -78.28885 | 22930 ft | 467 kts | 57° |
| 2026-04-29 02:22 | 2.14470 | -78.26200 | 22930 ft | 466 kts | 57° |
| 2026-04-29 02:22 | 2.16296 | -78.23520 | 22928 ft | 466 kts | 57° |
| 2026-04-29 02:22 | 2.18121 | -78.20837 | 22936 ft | 466 kts | 57° |
| 2026-04-29 02:23 | 2.19939 | -78.18157 | 22932 ft | 466 kts | 57° |
| 2026-04-29 02:23 | 2.21756 | -78.15475 | 22930 ft | 466 kts | 57° |
| 2026-04-29 02:23 | 2.23575 | -78.12793 | 22931 ft | 466 kts | 57° |
| 2026-04-29 02:23 | 2.25397 | -78.10109 | 22930 ft | 466 kts | 57° |
| 2026-04-29 02:24 | 2.27219 | -78.07424 | 22935 ft | 466 kts | 57° |
| 2026-04-29 02:24 | 2.29036 | -78.04744 | 22934 ft | 466 kts | 57° |
| 2026-04-29 02:24 | 2.30856 | -78.02061 | 22934 ft | 466 kts | 57° |
| 2026-04-29 02:25 | 2.34495 | -77.96697 | 22931 ft | 466 kts | 57° |
| 2026-04-29 02:25 | 2.36314 | -77.94015 | 22939 ft | 466 kts | 57° |
| 2026-04-29 02:25 | 2.38133 | -77.91333 | 22938 ft | 466 kts | 57° |
| 2026-04-29 02:25 | 2.39948 | -77.88652 | 22940 ft | 466 kts | 57° |
| 2026-04-29 02:26 | 2.41764 | -77.85964 | 22941 ft | 466 kts | 57° |
| 2026-04-29 02:26 | 2.43578 | -77.83282 | 22940 ft | 466 kts | 57° |
| 2026-04-29 02:26 | 2.45368 | -77.80645 | 22939 ft | 466 kts | 57° |
| 2026-04-29 02:26 | 2.47220 | -77.77924 | 22945 ft | 466 kts | 57° |
| 2026-04-29 02:27 | 2.49042 | -77.75245 | 22945 ft | 466 kts | 57° |
| 2026-04-29 02:27 | 2.50860 | -77.72566 | 22944 ft | 466 kts | 57° |
| 2026-04-29 02:27 | 2.52673 | -77.69886 | 22945 ft | 466 kts | 57° |
| 2026-04-29 02:27 | 2.54468 | -77.67232 | 22947 ft | 466 kts | 57° |
| 2026-04-29 02:28 | 2.56284 | -77.64551 | 22949 ft | 465 kts | 57° |
| 2026-04-29 02:28 | 2.58103 | -77.61869 | 22946 ft | 465 kts | 57° |
| 2026-04-29 02:28 | 2.59917 | -77.59192 | 22953 ft | 465 kts | 57° |
| 2026-04-29 02:28 | 2.61732 | -77.56509 | 22952 ft | 465 kts | 57° |
| 2026-04-29 02:29 | 2.63545 | -77.53828 | 22953 ft | 465 kts | 57° |
| 2026-04-29 02:29 | 2.65361 | -77.51147 | 22950 ft | 465 kts | 57° |
| 2026-04-29 02:29 | 2.67182 | -77.48465 | 22949 ft | 465 kts | 57° |
| 2026-04-29 02:29 | 2.68998 | -77.45789 | 22951 ft | 465 kts | 57° |
| 2026-04-29 02:30 | 2.70816 | -77.43107 | 22953 ft | 466 kts | 57° |
| 2026-04-29 02:30 | 2.72632 | -77.40428 | 22953 ft | 465 kts | 57° |
| 2026-04-29 02:30 | 2.74445 | -77.37752 | 22956 ft | 465 kts | 57° |
| 2026-04-29 02:30 | 2.76262 | -77.35067 | 22954 ft | 465 kts | 57° |
| 2026-04-29 02:31 | 2.78072 | -77.32392 | 22956 ft | 465 kts | 57° |
| 2026-04-29 02:31 | 2.79885 | -77.29710 | 22954 ft | 465 kts | 57° |
| 2026-04-29 02:31 | 2.81583 | -77.26964 | 22952 ft | 464 kts | 63° |
| 2026-04-29 02:31 | 2.82972 | -77.24048 | 22958 ft | 464 kts | 66° |
| 2026-04-29 02:32 | 2.84338 | -77.21126 | 22964 ft | 464 kts | 66° |
| 2026-04-29 02:32 | 2.85708 | -77.18197 | 22967 ft | 464 kts | 66° |
| 2026-04-29 02:32 | 2.87077 | -77.15273 | 22970 ft | 464 kts | 66° |
| 2026-04-29 02:32 | 2.88451 | -77.12350 | 22974 ft | 464 kts | 65° |
| 2026-04-29 02:33 | 2.89828 | -77.09429 | 22980 ft | 464 kts | 65° |
| 2026-04-29 02:33 | 2.91202 | -77.06507 | 22984 ft | 464 kts | 65° |
| 2026-04-29 02:33 | 2.92572 | -77.03583 | 22991 ft | 464 kts | 66° |
| 2026-04-29 02:33 | 2.93941 | -77.00659 | 22990 ft | 464 kts | 65° |
| 2026-04-29 02:34 | 2.95310 | -76.97733 | 22994 ft | 464 kts | 65° |
| 2026-04-29 02:34 | 2.96678 | -76.94811 | 22998 ft | 464 kts | 66° |
| 2026-04-29 02:34 | 2.98050 | -76.91881 | 23003 ft | 464 kts | 65° |
| 2026-04-29 02:34 | 2.99422 | -76.88954 | 23000 ft | 464 kts | 66° |
| 2026-04-29 02:35 | 3.00794 | -76.86029 | 23001 ft | 464 kts | 65° |
| 2026-04-29 02:35 | 3.02165 | -76.83107 | 23004 ft | 464 kts | 65° |
| 2026-04-29 02:35 | 3.03074 | -76.81170 | 23010 ft | 464 kts | 65° |
| 2026-04-29 02:35 | 3.04872 | -76.77333 | 22821 ft | 449 kts | 66° |
| 2026-04-29 02:36 | 3.05748 | -76.75463 | 22725 ft | 429 kts | 66° |
| 2026-04-29 02:36 | 3.06977 | -76.72844 | 22594 ft | 404 kts | 66° |
| 2026-04-29 02:36 | 3.08498 | -76.69595 | 22432 ft | 375 kts | 66° |
| 2026-04-29 02:36 | 3.09581 | -76.67281 | 22085 ft | 361 kts | 66° |
| 2026-04-29 02:37 | 3.10296 | -76.65753 | 21731 ft | 356 kts | 66° |
| 2026-04-29 02:37 | 3.11338 | -76.63526 | 21140 ft | 351 kts | 66° |
| 2026-04-29 02:37 | 3.12369 | -76.61328 | 20548 ft | 347 kts | 66° |
| 2026-04-29 02:37 | 3.13388 | -76.59151 | 19969 ft | 344 kts | 66° |
| 2026-04-29 02:38 | 3.14400 | -76.56993 | 19412 ft | 341 kts | 65° |
| 2026-04-29 02:38 | 3.15391 | -76.54887 | 18868 ft | 338 kts | 65° |
| 2026-04-29 02:38 | 3.16386 | -76.52772 | 18340 ft | 335 kts | 65° |
| 2026-04-29 02:38 | 3.17372 | -76.50673 | 17737 ft | 332 kts | 65° |
| 2026-04-29 02:39 | 3.18347 | -76.48593 | 17155 ft | 329 kts | 65° |
| 2026-04-29 02:39 | 3.19372 | -76.46560 | 16569 ft | 327 kts | 57° |
| 2026-04-29 02:39 | 3.20878 | -76.44878 | 16030 ft | 325 kts | 39° |
| 2026-04-29 02:39 | 3.22817 | -76.43783 | 15741 ft | 316 kts | 20° |
| 2026-04-29 02:40 | 3.24906 | -76.43291 | 15617 ft | 302 kts | 11° |
| 2026-04-29 02:40 | 3.26925 | -76.42940 | 15504 ft | 289 kts | 11° |
| 2026-04-29 02:40 | 3.28887 | -76.42597 | 15386 ft | 283 kts | 11° |
| 2026-04-29 02:40 | 3.30809 | -76.42260 | 15263 ft | 278 kts | 11° |
| 2026-04-29 02:41 | 3.32694 | -76.41930 | 15149 ft | 271 kts | 11° |
| 2026-04-29 02:41 | 3.34530 | -76.41609 | 14956 ft | 265 kts | 11° |
| 2026-04-29 02:41 | 3.36340 | -76.41293 | 14701 ft | 264 kts | 12° |
| 2026-04-29 02:41 | 3.38043 | -76.40670 | 14466 ft | 261 kts | 36° |
| 2026-04-29 02:42 | 3.39279 | -76.39379 | 14243 ft | 258 kts | 62° |
| 2026-04-29 02:42 | 3.39820 | -76.37689 | 14017 ft | 256 kts | 87° |
| 2026-04-29 02:42 | 3.39586 | -76.35940 | 13797 ft | 256 kts | 111° |
| 2026-04-29 02:42 | 3.38620 | -76.34462 | 13537 ft | 256 kts | 137° |
| 2026-04-29 02:43 | 3.37099 | -76.33546 | 13281 ft | 258 kts | 162° |
| 2026-04-29 02:43 | 3.35329 | -76.33374 | 13025 ft | 256 kts | 186° |
| 2026-04-29 02:43 | 3.33567 | -76.33641 | 12783 ft | 256 kts | 189° |
| 2026-04-29 02:43 | 3.31812 | -76.33954 | 12538 ft | 256 kts | 189° |
| 2026-04-29 02:44 | 3.30060 | -76.34280 | 12294 ft | 256 kts | 189° |
| 2026-04-29 02:44 | 3.28315 | -76.34602 | 12042 ft | 253 kts | 189° |
| 2026-04-29 02:44 | 3.26652 | -76.35144 | 11799 ft | 252 kts | 211° |
| 2026-04-29 02:44 | 3.25377 | -76.36320 | 11555 ft | 251 kts | 236° |
| 2026-04-29 02:45 | 3.24722 | -76.37914 | 11310 ft | 249 kts | 262° |
| 2026-04-29 02:45 | 3.24795 | -76.39622 | 11074 ft | 246 kts | 287° |
| 2026-04-29 02:45 | 3.25566 | -76.41130 | 10837 ft | 244 kts | 311° |
| 2026-04-29 02:45 | 3.26874 | -76.42176 | 10594 ft | 241 kts | 336° |
| 2026-04-29 02:46 | 3.28477 | -76.42591 | 10367 ft | 239 kts | 360° |
| 2026-04-29 02:46 | 3.30126 | -76.42444 | 10144 ft | 238 kts | 9° |
| 2026-04-29 02:46 | 3.31758 | -76.42171 | 9930 ft | 237 kts | 11° |
| 2026-04-29 02:46 | 3.33380 | -76.41870 | 9812 ft | 237 kts | 11° |
| 2026-04-29 02:47 | 3.35004 | -76.41563 | 9688 ft | 237 kts | 11° |
| 2026-04-29 02:47 | 3.36623 | -76.41255 | 9566 ft | 237 kts | 13° |
| 2026-04-29 02:47 | 3.38082 | -76.40542 | 9428 ft | 235 kts | 42° |
| 2026-04-29 02:47 | 3.39006 | -76.39218 | 9298 ft | 233 kts | 72° |
| 2026-04-29 02:48 | 3.39174 | -76.37621 | 9172 ft | 233 kts | 101° |
| 2026-04-29 02:48 | 3.38555 | -76.36141 | 9048 ft | 233 kts | 129° |
| 2026-04-29 02:48 | 3.37303 | -76.35141 | 8922 ft | 233 kts | 158° |
| 2026-04-29 02:48 | 3.35725 | -76.34869 | 8801 ft | 232 kts | 186° |
| 2026-04-29 02:49 | 3.34123 | -76.35117 | 8685 ft | 233 kts | 191° |
| 2026-04-29 02:49 | 3.32524 | -76.35406 | 8558 ft | 233 kts | 191° |
| 2026-04-29 02:49 | 3.30929 | -76.35699 | 8436 ft | 233 kts | 191° |
| 2026-04-29 02:49 | 3.29333 | -76.35993 | 8319 ft | 233 kts | 191° |
| 2026-04-29 02:50 | 3.27812 | -76.36510 | 8188 ft | 232 kts | 214° |
| 2026-04-29 02:50 | 3.26714 | -76.37659 | 8066 ft | 230 kts | 243° |
| 2026-04-29 02:50 | 3.26293 | -76.39186 | 7840 ft | 227 kts | 272° |
| 2026-04-29 02:50 | 3.26667 | -76.40700 | 7823 ft | 227 kts | 300° |
| 2026-04-29 02:51 | 3.27705 | -76.41868 | 7750 ft | 227 kts | 327° |
| 2026-04-29 02:51 | 3.29166 | -76.42411 | 7576 ft | 226 kts | 355° |
| 2026-04-29 02:51 | 3.30720 | -76.42275 | 7368 ft | 225 kts | 11° |
| 2026-04-29 02:51 | 3.32259 | -76.42001 | 7154 ft | 224 kts | 11° |
| 2026-04-29 02:52 | 3.33786 | -76.41733 | 6943 ft | 221 kts | 11° |
| 2026-04-29 02:52 | 3.35275 | -76.41474 | 6745 ft | 212 kts | 10° |
| 2026-04-29 02:52 | 3.36685 | -76.41229 | 6585 ft | 198 kts | 10° |
| 2026-04-29 02:52 | 3.37999 | -76.41001 | 6466 ft | 184 kts | 10° |
| 2026-04-29 02:53 | 3.39187 | -76.40796 | 6350 ft | 165 kts | 10° |
| 2026-04-29 02:53 | 3.40259 | -76.40610 | 6224 ft | 150 kts | 11° |
| 2026-04-29 02:53 | 3.41282 | -76.40432 | 6020 ft | 148 kts | 9° |
| 2026-04-29 02:53 | 3.42281 | -76.40277 | 5723 ft | 146 kts | 10° |
| 2026-04-29 02:54 | 3.43283 | -76.40104 | 5369 ft | 147 kts | 11° |
| 2026-04-29 02:54 | 3.44287 | -76.39921 | 5012 ft | 148 kts | 11° |
| 2026-04-29 02:54 | 3.45301 | -76.39734 | 4659 ft | 148 kts | 11° |
| 2026-04-29 02:54 | 3.46294 | -76.39552 | 4477 ft | 143 kts | 11° |
| 2026-04-29 02:55 | 3.47281 | -76.39378 | 4392 ft | 145 kts | 10° |
| 2026-04-29 02:55 | 3.48274 | -76.39215 | 4153 ft | 144 kts | 10° |
| 2026-04-29 02:55 | 3.49253 | -76.39048 | 3959 ft | 143 kts | 10° |
| 2026-04-29 02:55 | 3.50219 | -76.38883 | 3719 ft | 139 kts | 10° |
| 2026-04-29 02:56 | 3.51165 | -76.38721 | 3555 ft | 137 kts | 10° |
| 2026-04-29 02:56 | 3.52105 | -76.38560 | 3342 ft | 134 kts | 10° |
| 2026-04-29 02:56 | 3.53027 | -76.38394 | 3196 ft | 133 kts | 12° |
| 2026-04-29 02:56 | 3.53817 | -76.38256 | 3166 ft | 87 kts | 9° |
| 2026-04-29 02:57 | 3.54215 | -76.38188 | 3168 ft | 41 kts | 10° |
| 2026-04-29 02:57 | 3.54451 | -76.38148 | 3166 ft | 28 kts | 10° |
| 2026-04-29 02:57 | 3.54563 | -76.38135 | 3167 ft | 13 kts | 347° |
| 2026-04-29 02:57 | 3.54599 | -76.38189 | 3167 ft | 6 kts | 281° |
| 2026-04-29 02:58 | 3.54607 | -76.38240 | 3167 ft | 8 kts | 264° |
| 2026-04-29 02:58 | 3.54572 | -76.38288 | 3167 ft | 10 kts | 205° |
| 2026-04-29 02:58 | 3.54499 | -76.38300 | 3167 ft | 12 kts | 189° |
| 2026-04-29 02:58 | 3.54413 | -76.38317 | 3167 ft | 13 kts | 192° |
| 2026-04-29 02:59 | 3.54315 | -76.38340 | 3167 ft | 15 kts | 194° |
| 2026-04-29 02:59 | 3.54205 | -76.38356 | 3167 ft | 17 kts | 191° |
| 2026-04-29 02:59 | 3.54084 | -76.38377 | 3166 ft | 18 kts | 189° |
| 2026-04-29 02:59 | 3.53957 | -76.38399 | 3165 ft | 19 kts | 189° |
| 2026-04-29 03:00 | 3.53841 | -76.38418 | 3165 ft | 17 kts | 190° |
| 2026-04-29 03:00 | 3.53724 | -76.38438 | 3164 ft | 14 kts | 189° |
| 2026-04-29 03:00 | 3.53635 | -76.38454 | 3184 ft | 10 kts | 193° |
| 2026-04-29 03:00 | 3.53644 | -76.38486 | 3154 ft | 6 kts | 298° |
| 2026-04-29 03:01 | 3.53647 | -76.38534 | 3164 ft | 8 kts | 262° |
| 2026-04-29 03:01 | 3.53648 | -76.38579 | 3164 ft | 6 kts | 308° |
| 2026-04-29 03:01 | 3.53669 | -76.38604 | 3164 ft | 0 kts | 311° |